sensor_id;sensor_type;location;lat;lon;timestamp;P1;durP1;ratioP1;P2;durP2;ratioP2
30681;SDS011;17439;48.092;11.842;2023-03-01T00:00:22;21.38;;;10.30;;
30681;SDS011;17439;48.092;11.842;2023-03-01T00:02:49;23.65;;;10.85;;
30681;SDS011;17439;48.092;11.842;2023-03-01T00:05:16;25.70;;;11.02;;
30681;SDS011;17439;48.092;11.842;2023-03-01T00:07:42;25.35;;;11.15;;
30681;SDS011;17439;48.092;11.842;2023-03-01T00:10:09;33.75;;;13.93;;
30681;SDS011;17439;48.092;11.842;2023-03-01T00:12:36;25.17;;;12.05;;
30681;SDS011;17439;48.092;11.842;2023-03-01T00:15:03;29.45;;;12.07;;
30681;SDS011;17439;48.092;11.842;2023-03-01T00:17:30;28.42;;;10.88;;
30681;SDS011;17439;48.092;11.842;2023-03-01T00:19:56;29.05;;;11.50;;
30681;SDS011;17439;48.092;11.842;2023-03-01T00:22:23;29.42;;;11.43;;
30681;SDS011;17439;48.092;11.842;2023-03-01T00:24:49;24.15;;;10.35;;
30681;SDS011;17439;48.092;11.842;2023-03-01T00:27:16;28.92;;;13.27;;
30681;SDS011;17439;48.092;11.842;2023-03-01T00:29:43;28.42;;;13.00;;
30681;SDS011;17439;48.092;11.842;2023-03-01T00:32:09;28.08;;;12.18;;
30681;SDS011;17439;48.092;11.842;2023-03-01T00:34:36;23.35;;;10.25;;
30681;SDS011;17439;48.092;11.842;2023-03-01T00:37:03;25.63;;;9.52;;
30681;SDS011;17439;48.092;11.842;2023-03-01T00:39:29;23.25;;;11.23;;
30681;SDS011;17439;48.092;11.842;2023-03-01T00:41:56;29.30;;;12.05;;
30681;SDS011;17439;48.092;11.842;2023-03-01T00:44:22;26.05;;;11.90;;
30681;SDS011;17439;48.092;11.842;2023-03-01T00:46:49;22.58;;;10.45;;
30681;SDS011;17439;48.092;11.842;2023-03-01T00:49:15;19.67;;;9.25;;
30681;SDS011;17439;48.092;11.842;2023-03-01T00:51:42;27.58;;;12.48;;
30681;SDS011;17439;48.092;11.842;2023-03-01T00:54:08;24.50;;;10.82;;
30681;SDS011;17439;48.092;11.842;2023-03-01T00:56:35;27.58;;;11.82;;
30681;SDS011;17439;48.092;11.842;2023-03-01T00:59:02;29.85;;;13.23;;
30681;SDS011;17439;48.092;11.842;2023-03-01T01:01:29;31.30;;;12.75;;
30681;SDS011;17439;48.092;11.842;2023-03-01T01:04:01;27.50;;;11.63;;
30681;SDS011;17439;48.092;11.842;2023-03-01T01:06:34;34.80;;;13.48;;
30681;SDS011;17439;48.092;11.842;2023-03-01T01:09:06;26.63;;;12.00;;
30681;SDS011;17439;48.092;11.842;2023-03-01T01:11:33;28.47;;;12.77;;
30681;SDS011;17439;48.092;11.842;2023-03-01T01:14:00;29.17;;;12.23;;
30681;SDS011;17439;48.092;11.842;2023-03-01T01:16:28;27.70;;;12.13;;
30681;SDS011;17439;48.092;11.842;2023-03-01T01:21:23;23.02;;;10.13;;
30681;SDS011;17439;48.092;11.842;2023-03-01T01:23:51;29.55;;;12.73;;
30681;SDS011;17439;48.092;11.842;2023-03-01T01:26:22;30.17;;;11.18;;
30681;SDS011;17439;48.092;11.842;2023-03-01T01:28:56;26.98;;;11.57;;
30681;SDS011;17439;48.092;11.842;2023-03-01T01:31:24;24.92;;;10.98;;
30681;SDS011;17439;48.092;11.842;2023-03-01T01:33:51;22.55;;;11.43;;
30681;SDS011;17439;48.092;11.842;2023-03-01T01:36:19;29.40;;;13.63;;
30681;SDS011;17439;48.092;11.842;2023-03-01T01:38:46;22.45;;;11.05;;
30681;SDS011;17439;48.092;11.842;2023-03-01T01:41:13;25.10;;;11.13;;
30681;SDS011;17439;48.092;11.842;2023-03-01T01:43:41;25.70;;;11.35;;
30681;SDS011;17439;48.092;11.842;2023-03-01T01:46:14;28.95;;;11.98;;
30681;SDS011;17439;48.092;11.842;2023-03-01T01:49:02;28.20;;;12.10;;
30681;SDS011;17439;48.092;11.842;2023-03-01T01:51:36;28.33;;;12.45;;
30681;SDS011;17439;48.092;11.842;2023-03-01T01:54:08;27.67;;;12.35;;
30681;SDS011;17439;48.092;11.842;2023-03-01T01:56:38;27.15;;;12.43;;
30681;SDS011;17439;48.092;11.842;2023-03-01T01:59:10;33.17;;;12.90;;
30681;SDS011;17439;48.092;11.842;2023-03-01T02:01:38;27.88;;;12.90;;
30681;SDS011;17439;48.092;11.842;2023-03-01T02:04:04;27.00;;;12.60;;
30681;SDS011;17439;48.092;11.842;2023-03-01T02:06:32;23.00;;;11.30;;
30681;SDS011;17439;48.092;11.842;2023-03-01T02:12:05;24.45;;;11.18;;
30681;SDS011;17439;48.092;11.842;2023-03-01T02:14:32;26.73;;;11.73;;
30681;SDS011;17439;48.092;11.842;2023-03-01T02:16:59;26.60;;;11.77;;
30681;SDS011;17439;48.092;11.842;2023-03-01T02:19:36;23.25;;;10.82;;
30681;SDS011;17439;48.092;11.842;2023-03-01T02:22:34;27.75;;;12.15;;
30681;SDS011;17439;48.092;11.842;2023-03-01T02:30:34;27.30;;;12.65;;
30681;SDS011;17439;48.092;11.842;2023-03-01T02:33:01;24.33;;;11.45;;
30681;SDS011;17439;48.092;11.842;2023-03-01T02:35:32;28.35;;;12.77;;
30681;SDS011;17439;48.092;11.842;2023-03-01T02:38:01;28.25;;;12.80;;
30681;SDS011;17439;48.092;11.842;2023-03-01T02:40:30;25.42;;;10.82;;
30681;SDS011;17439;48.092;11.842;2023-03-01T02:42:58;26.92;;;12.15;;
30681;SDS011;17439;48.092;11.842;2023-03-01T02:45:26;20.20;;;10.15;;
30681;SDS011;17439;48.092;11.842;2023-03-01T02:47:54;25.35;;;11.88;;
30681;SDS011;17439;48.092;11.842;2023-03-01T02:55:32;26.83;;;12.68;;
30681;SDS011;17439;48.092;11.842;2023-03-01T02:57:59;26.02;;;12.02;;
30681;SDS011;17439;48.092;11.842;2023-03-01T03:00:31;21.70;;;9.32;;
30681;SDS011;17439;48.092;11.842;2023-03-01T03:03:03;23.05;;;12.02;;
30681;SDS011;17439;48.092;11.842;2023-03-01T03:05:30;27.42;;;12.25;;
30681;SDS011;17439;48.092;11.842;2023-03-01T03:07:58;26.77;;;10.50;;
30681;SDS011;17439;48.092;11.842;2023-03-01T03:10:31;32.92;;;13.32;;
30681;SDS011;17439;48.092;11.842;2023-03-01T03:13:04;34.08;;;13.05;;
30681;SDS011;17439;48.092;11.842;2023-03-01T03:15:32;20.42;;;10.02;;
30681;SDS011;17439;48.092;11.842;2023-03-01T03:17:59;27.00;;;13.07;;
30681;SDS011;17439;48.092;11.842;2023-03-01T03:20:27;26.75;;;12.30;;
30681;SDS011;17439;48.092;11.842;2023-03-01T03:22:56;31.42;;;13.15;;
30681;SDS011;17439;48.092;11.842;2023-03-01T03:25:23;30.20;;;13.93;;
30681;SDS011;17439;48.092;11.842;2023-03-01T03:27:52;27.00;;;11.38;;
30681;SDS011;17439;48.092;11.842;2023-03-01T03:30:19;24.02;;;10.80;;
30681;SDS011;17439;48.092;11.842;2023-03-01T03:32:46;23.45;;;10.77;;
30681;SDS011;17439;48.092;11.842;2023-03-01T03:35:14;18.60;;;9.15;;
30681;SDS011;17439;48.092;11.842;2023-03-01T03:37:40;30.85;;;13.45;;
30681;SDS011;17439;48.092;11.842;2023-03-01T03:40:08;27.27;;;12.47;;
30681;SDS011;17439;48.092;11.842;2023-03-01T03:42:35;28.65;;;12.57;;
30681;SDS011;17439;48.092;11.842;2023-03-01T03:45:02;30.33;;;13.70;;
30681;SDS011;17439;48.092;11.842;2023-03-01T03:47:28;28.50;;;11.98;;
30681;SDS011;17439;48.092;11.842;2023-03-01T03:49:55;27.80;;;12.57;;
30681;SDS011;17439;48.092;11.842;2023-03-01T03:52:21;24.65;;;11.45;;
30681;SDS011;17439;48.092;11.842;2023-03-01T03:54:48;23.17;;;11.10;;
30681;SDS011;17439;48.092;11.842;2023-03-01T03:57:14;32.40;;;11.57;;
30681;SDS011;17439;48.092;11.842;2023-03-01T03:59:41;25.08;;;11.40;;
30681;SDS011;17439;48.092;11.842;2023-03-01T04:02:07;28.60;;;12.07;;
30681;SDS011;17439;48.092;11.842;2023-03-01T04:04:34;33.15;;;11.50;;
30681;SDS011;17439;48.092;11.842;2023-03-01T04:07:01;28.35;;;11.98;;
30681;SDS011;17439;48.092;11.842;2023-03-01T04:09:27;22.85;;;10.77;;
30681;SDS011;17439;48.092;11.842;2023-03-01T04:11:54;29.05;;;11.13;;
30681;SDS011;17439;48.092;11.842;2023-03-01T04:14:20;30.30;;;12.88;;
30681;SDS011;17439;48.092;11.842;2023-03-01T04:16:47;23.27;;;10.95;;
30681;SDS011;17439;48.092;11.842;2023-03-01T04:19:13;32.08;;;11.95;;
30681;SDS011;17439;48.092;11.842;2023-03-01T04:21:40;29.80;;;12.88;;
30681;SDS011;17439;48.092;11.842;2023-03-01T04:24:06;26.40;;;11.95;;
30681;SDS011;17439;48.092;11.842;2023-03-01T04:26:33;21.85;;;10.68;;
30681;SDS011;17439;48.092;11.842;2023-03-01T04:28:59;30.77;;;14.07;;
30681;SDS011;17439;48.092;11.842;2023-03-01T04:31:26;24.20;;;11.02;;
30681;SDS011;17439;48.092;11.842;2023-03-01T04:33:53;22.17;;;10.98;;
30681;SDS011;17439;48.092;11.842;2023-03-01T04:36:23;21.75;;;11.32;;
30681;SDS011;17439;48.092;11.842;2023-03-01T04:38:51;30.45;;;13.20;;
30681;SDS011;17439;48.092;11.842;2023-03-01T04:41:19;29.15;;;12.57;;
30681;SDS011;17439;48.092;11.842;2023-03-01T04:43:47;25.65;;;12.82;;
30681;SDS011;17439;48.092;11.842;2023-03-01T04:46:15;25.65;;;12.30;;
30681;SDS011;17439;48.092;11.842;2023-03-01T04:48:44;26.42;;;11.90;;
30681;SDS011;17439;48.092;11.842;2023-03-01T04:51:11;22.95;;;11.00;;
30681;SDS011;17439;48.092;11.842;2023-03-01T04:53:37;23.50;;;9.93;;
30681;SDS011;17439;48.092;11.842;2023-03-01T04:56:04;34.97;;;14.65;;
30681;SDS011;17439;48.092;11.842;2023-03-01T04:58:31;23.48;;;11.63;;
30681;SDS011;17439;48.092;11.842;2023-03-01T05:00:58;29.40;;;13.73;;
30681;SDS011;17439;48.092;11.842;2023-03-01T05:03:25;33.47;;;14.60;;
30681;SDS011;17439;48.092;11.842;2023-03-01T05:05:52;27.00;;;12.38;;
30681;SDS011;17439;48.092;11.842;2023-03-01T05:08:18;23.50;;;10.67;;
30681;SDS011;17439;48.092;11.842;2023-03-01T05:10:49;26.83;;;11.50;;
30681;SDS011;17439;48.092;11.842;2023-03-01T05:13:18;31.63;;;12.85;;
30681;SDS011;17439;48.092;11.842;2023-03-01T05:15:56;25.63;;;11.13;;
30681;SDS011;17439;48.092;11.842;2023-03-01T05:18:24;30.92;;;13.73;;
30681;SDS011;17439;48.092;11.842;2023-03-01T05:20:52;27.33;;;14.18;;
30681;SDS011;17439;48.092;11.842;2023-03-01T05:23:19;25.67;;;12.35;;
30681;SDS011;17439;48.092;11.842;2023-03-01T05:25:46;32.85;;;14.18;;
30681;SDS011;17439;48.092;11.842;2023-03-01T05:28:13;27.73;;;11.45;;
30681;SDS011;17439;48.092;11.842;2023-03-01T05:30:39;27.53;;;12.10;;
30681;SDS011;17439;48.092;11.842;2023-03-01T05:33:07;23.15;;;10.88;;
30681;SDS011;17439;48.092;11.842;2023-03-01T05:35:34;28.33;;;12.00;;
30681;SDS011;17439;48.092;11.842;2023-03-01T05:38:00;25.23;;;12.27;;
30681;SDS011;17439;48.092;11.842;2023-03-01T05:40:27;28.90;;;12.88;;
30681;SDS011;17439;48.092;11.842;2023-03-01T05:42:54;32.10;;;12.60;;
30681;SDS011;17439;48.092;11.842;2023-03-01T05:45:23;31.17;;;15.10;;
30681;SDS011;17439;48.092;11.842;2023-03-01T05:47:51;28.88;;;12.02;;
30681;SDS011;17439;48.092;11.842;2023-03-01T05:50:28;26.92;;;12.60;;
30681;SDS011;17439;48.092;11.842;2023-03-01T05:55:26;33.83;;;14.45;;
30681;SDS011;17439;48.092;11.842;2023-03-01T06:00:21;28.70;;;11.82;;
30681;SDS011;17439;48.092;11.842;2023-03-01T06:02:48;29.88;;;12.82;;
30681;SDS011;17439;48.092;11.842;2023-03-01T06:05:15;29.33;;;12.48;;
30681;SDS011;17439;48.092;11.842;2023-03-01T06:07:41;30.95;;;13.18;;
30681;SDS011;17439;48.092;11.842;2023-03-01T06:10:08;30.73;;;13.30;;
30681;SDS011;17439;48.092;11.842;2023-03-01T06:12:37;32.15;;;14.23;;
30681;SDS011;17439;48.092;11.842;2023-03-01T06:15:09;30.55;;;14.43;;
30681;SDS011;17439;48.092;11.842;2023-03-01T06:17:38;27.73;;;12.00;;
30681;SDS011;17439;48.092;11.842;2023-03-01T06:20:10;35.25;;;14.68;;
30681;SDS011;17439;48.092;11.842;2023-03-01T06:22:38;28.75;;;12.60;;
30681;SDS011;17439;48.092;11.842;2023-03-01T06:25:08;27.80;;;12.77;;
30681;SDS011;17439;48.092;11.842;2023-03-01T06:27:36;31.90;;;13.43;;
30681;SDS011;17439;48.092;11.842;2023-03-01T06:30:03;32.08;;;12.65;;
30681;SDS011;17439;48.092;11.842;2023-03-01T06:32:29;38.92;;;15.50;;
30681;SDS011;17439;48.092;11.842;2023-03-01T06:34:56;38.22;;;13.88;;
30681;SDS011;17439;48.092;11.842;2023-03-01T06:37:23;35.80;;;15.30;;
30681;SDS011;17439;48.092;11.842;2023-03-01T06:39:49;35.60;;;14.38;;
30681;SDS011;17439;48.092;11.842;2023-03-01T06:42:16;33.03;;;13.43;;
30681;SDS011;17439;48.092;11.842;2023-03-01T06:44:43;30.15;;;14.10;;
30681;SDS011;17439;48.092;11.842;2023-03-01T06:47:10;29.30;;;12.70;;
30681;SDS011;17439;48.092;11.842;2023-03-01T06:49:37;36.08;;;14.23;;
30681;SDS011;17439;48.092;11.842;2023-03-01T06:52:03;28.10;;;11.43;;
30681;SDS011;17439;48.092;11.842;2023-03-01T06:54:30;37.40;;;15.18;;
30681;SDS011;17439;48.092;11.842;2023-03-01T06:56:57;31.00;;;11.98;;
30681;SDS011;17439;48.092;11.842;2023-03-01T06:59:23;31.08;;;12.50;;
30681;SDS011;17439;48.092;11.842;2023-03-01T07:01:50;38.95;;;14.77;;
30681;SDS011;17439;48.092;11.842;2023-03-01T07:04:17;28.27;;;11.95;;
30681;SDS011;17439;48.092;11.842;2023-03-01T07:06:43;30.40;;;11.68;;
30681;SDS011;17439;48.092;11.842;2023-03-01T07:09:10;36.25;;;16.25;;
30681;SDS011;17439;48.092;11.842;2023-03-01T07:11:36;37.83;;;15.65;;
30681;SDS011;17439;48.092;11.842;2023-03-01T07:14:03;27.50;;;13.90;;
30681;SDS011;17439;48.092;11.842;2023-03-01T07:16:30;38.20;;;14.32;;
30681;SDS011;17439;48.092;11.842;2023-03-01T07:18:57;35.53;;;14.43;;
30681;SDS011;17439;48.092;11.842;2023-03-01T07:23:51;31.48;;;14.30;;
30681;SDS011;17439;48.092;11.842;2023-03-01T07:26:18;25.35;;;11.35;;
30681;SDS011;17439;48.092;11.842;2023-03-01T07:28:44;31.13;;;13.23;;
30681;SDS011;17439;48.092;11.842;2023-03-01T07:31:11;36.47;;;16.70;;
30681;SDS011;17439;48.092;11.842;2023-03-01T07:33:37;36.25;;;14.60;;
30681;SDS011;17439;48.092;11.842;2023-03-01T07:36:04;35.47;;;14.88;;
30681;SDS011;17439;48.092;11.842;2023-03-01T07:38:31;32.00;;;15.38;;
30681;SDS011;17439;48.092;11.842;2023-03-01T07:41:01;28.70;;;13.60;;
30681;SDS011;17439;48.092;11.842;2023-03-01T07:43:29;32.00;;;15.23;;
30681;SDS011;17439;48.092;11.842;2023-03-01T07:46:00;31.35;;;14.98;;
30681;SDS011;17439;48.092;11.842;2023-03-01T07:48:27;34.70;;;14.07;;
30681;SDS011;17439;48.092;11.842;2023-03-01T07:50:55;33.70;;;14.35;;
30681;SDS011;17439;48.092;11.842;2023-03-01T07:53:24;30.13;;;12.73;;
30681;SDS011;17439;48.092;11.842;2023-03-01T07:55:59;35.92;;;15.70;;
30681;SDS011;17439;48.092;11.842;2023-03-01T07:58:30;33.80;;;14.32;;
30681;SDS011;17439;48.092;11.842;2023-03-01T08:01:00;26.92;;;13.93;;
30681;SDS011;17439;48.092;11.842;2023-03-01T08:03:28;33.72;;;14.25;;
30681;SDS011;17439;48.092;11.842;2023-03-01T08:05:54;38.85;;;16.67;;
30681;SDS011;17439;48.092;11.842;2023-03-01T08:08:21;32.78;;;12.25;;
30681;SDS011;17439;48.092;11.842;2023-03-01T08:10:48;32.70;;;14.30;;
30681;SDS011;17439;48.092;11.842;2023-03-01T08:13:14;35.03;;;14.55;;
30681;SDS011;17439;48.092;11.842;2023-03-01T08:15:41;36.25;;;16.58;;
30681;SDS011;17439;48.092;11.842;2023-03-01T08:18:07;34.10;;;14.48;;
30681;SDS011;17439;48.092;11.842;2023-03-01T08:20:34;36.55;;;16.05;;
30681;SDS011;17439;48.092;11.842;2023-03-01T08:23:00;37.97;;;15.27;;
30681;SDS011;17439;48.092;11.842;2023-03-01T08:25:27;30.02;;;14.73;;
30681;SDS011;17439;48.092;11.842;2023-03-01T08:27:53;36.03;;;15.57;;
30681;SDS011;17439;48.092;11.842;2023-03-01T08:30:20;36.42;;;16.13;;
30681;SDS011;17439;48.092;11.842;2023-03-01T08:32:47;35.85;;;16.52;;
30681;SDS011;17439;48.092;11.842;2023-03-01T08:35:13;36.78;;;13.02;;
30681;SDS011;17439;48.092;11.842;2023-03-01T08:37:40;32.70;;;15.05;;
30681;SDS011;17439;48.092;11.842;2023-03-01T08:40:07;32.30;;;14.77;;
30681;SDS011;17439;48.092;11.842;2023-03-01T08:42:34;31.88;;;14.32;;
30681;SDS011;17439;48.092;11.842;2023-03-01T08:45:01;31.80;;;14.98;;
30681;SDS011;17439;48.092;11.842;2023-03-01T08:47:27;35.80;;;14.05;;
30681;SDS011;17439;48.092;11.842;2023-03-01T08:49:54;25.70;;;12.25;;
30681;SDS011;17439;48.092;11.842;2023-03-01T08:52:20;34.67;;;15.45;;
30681;SDS011;17439;48.092;11.842;2023-03-01T08:54:47;34.47;;;13.95;;
30681;SDS011;17439;48.092;11.842;2023-03-01T08:57:14;36.30;;;14.73;;
30681;SDS011;17439;48.092;11.842;2023-03-01T08:59:41;32.88;;;14.75;;
30681;SDS011;17439;48.092;11.842;2023-03-01T09:02:10;34.25;;;15.32;;
30681;SDS011;17439;48.092;11.842;2023-03-01T09:04:39;31.83;;;13.85;;
30681;SDS011;17439;48.092;11.842;2023-03-01T09:07:06;30.73;;;15.43;;
30681;SDS011;17439;48.092;11.842;2023-03-01T09:09:34;35.67;;;16.35;;
30681;SDS011;17439;48.092;11.842;2023-03-01T09:12:01;27.50;;;14.27;;
30681;SDS011;17439;48.092;11.842;2023-03-01T09:14:28;33.17;;;14.25;;
30681;SDS011;17439;48.092;11.842;2023-03-01T09:16:54;33.03;;;15.48;;
30681;SDS011;17439;48.092;11.842;2023-03-01T09:19:21;31.70;;;13.93;;
30681;SDS011;17439;48.092;11.842;2023-03-01T09:21:51;39.38;;;15.65;;
30681;SDS011;17439;48.092;11.842;2023-03-01T09:24:19;30.70;;;12.60;;
30681;SDS011;17439;48.092;11.842;2023-03-01T09:26:47;26.20;;;12.57;;
30681;SDS011;17439;48.092;11.842;2023-03-01T09:29:16;35.50;;;14.43;;
30681;SDS011;17439;48.092;11.842;2023-03-01T09:31:43;36.08;;;16.33;;
30681;SDS011;17439;48.092;11.842;2023-03-01T09:34:10;32.85;;;14.50;;
30681;SDS011;17439;48.092;11.842;2023-03-01T09:36:36;30.60;;;15.02;;
30681;SDS011;17439;48.092;11.842;2023-03-01T09:39:03;31.05;;;14.02;;
30681;SDS011;17439;48.092;11.842;2023-03-01T09:41:35;35.88;;;13.43;;
30681;SDS011;17439;48.092;11.842;2023-03-01T09:44:03;34.20;;;15.43;;
30681;SDS011;17439;48.092;11.842;2023-03-01T09:46:58;39.58;;;15.55;;
30681;SDS011;17439;48.092;11.842;2023-03-01T09:49:29;31.48;;;14.73;;
30681;SDS011;17439;48.092;11.842;2023-03-01T09:54:43;31.00;;;12.85;;
30681;SDS011;17439;48.092;11.842;2023-03-01T09:57:15;36.00;;;14.88;;
30681;SDS011;17439;48.092;11.842;2023-03-01T09:59:48;30.30;;;14.88;;
30681;SDS011;17439;48.092;11.842;2023-03-01T10:02:27;26.20;;;11.35;;
30681;SDS011;17439;48.092;11.842;2023-03-01T10:05:14;32.63;;;13.85;;
30681;SDS011;17439;48.092;11.842;2023-03-01T10:10:34;31.05;;;13.90;;
30681;SDS011;17439;48.092;11.842;2023-03-01T10:13:09;27.38;;;12.68;;
30681;SDS011;17439;48.092;11.842;2023-03-01T10:15:44;28.15;;;12.85;;
30681;SDS011;17439;48.092;11.842;2023-03-01T10:18:17;31.45;;;13.07;;
30681;SDS011;17439;48.092;11.842;2023-03-01T10:20:52;29.40;;;13.88;;
30681;SDS011;17439;48.092;11.842;2023-03-01T10:23:45;30.38;;;13.25;;
30681;SDS011;17439;48.092;11.842;2023-03-01T10:29:01;36.85;;;15.05;;
30681;SDS011;17439;48.092;11.842;2023-03-01T10:34:15;29.93;;;14.07;;
30681;SDS011;17439;48.092;11.842;2023-03-01T10:36:42;35.95;;;16.10;;
30681;SDS011;17439;48.092;11.842;2023-03-01T10:39:15;34.53;;;16.25;;
30681;SDS011;17439;48.092;11.842;2023-03-01T10:42:05;35.83;;;15.10;;
30681;SDS011;17439;48.092;11.842;2023-03-01T10:44:36;33.15;;;15.57;;
30681;SDS011;17439;48.092;11.842;2023-03-01T10:47:21;33.25;;;15.20;;
30681;SDS011;17439;48.092;11.842;2023-03-01T10:50:00;39.20;;;16.98;;
30681;SDS011;17439;48.092;11.842;2023-03-01T10:52:30;50.05;;;17.90;;
30681;SDS011;17439;48.092;11.842;2023-03-01T10:57:50;41.03;;;18.35;;
30681;SDS011;17439;48.092;11.842;2023-03-01T11:00:32;37.08;;;17.30;;
30681;SDS011;17439;48.092;11.842;2023-03-01T11:03:19;33.80;;;15.50;;
30681;SDS011;17439;48.092;11.842;2023-03-01T11:05:53;34.15;;;14.77;;
30681;SDS011;17439;48.092;11.842;2023-03-01T11:13:55;37.65;;;16.60;;
30681;SDS011;17439;48.092;11.842;2023-03-01T11:16:28;37.92;;;17.20;;
30681;SDS011;17439;48.092;11.842;2023-03-01T11:18:59;35.38;;;14.10;;
30681;SDS011;17439;48.092;11.842;2023-03-01T11:21:36;30.52;;;13.90;;
30681;SDS011;17439;48.092;11.842;2023-03-01T11:24:11;33.22;;;16.55;;
30681;SDS011;17439;48.092;11.842;2023-03-01T11:26:41;34.58;;;15.38;;
30681;SDS011;17439;48.092;11.842;2023-03-01T11:29:25;38.08;;;15.25;;
30681;SDS011;17439;48.092;11.842;2023-03-01T11:32:07;34.83;;;14.38;;
30681;SDS011;17439;48.092;11.842;2023-03-01T11:37:52;35.83;;;16.50;;
30681;SDS011;17439;48.092;11.842;2023-03-01T11:40:27;37.80;;;15.27;;
30681;SDS011;17439;48.092;11.842;2023-03-01T11:43:18;41.38;;;17.33;;
30681;SDS011;17439;48.092;11.842;2023-03-01T11:51:38;35.80;;;16.50;;
30681;SDS011;17439;48.092;11.842;2023-03-01T12:05:59;26.77;;;12.55;;
30681;SDS011;17439;48.092;11.842;2023-03-01T12:08:35;37.53;;;16.00;;
30681;SDS011;17439;48.092;11.842;2023-03-01T12:11:12;30.88;;;13.52;;
30681;SDS011;17439;48.092;11.842;2023-03-01T12:21:51;32.00;;;14.25;;
30681;SDS011;17439;48.092;11.842;2023-03-01T12:38:31;32.65;;;14.98;;
30681;SDS011;17439;48.092;11.842;2023-03-01T12:41:11;37.85;;;15.95;;
30681;SDS011;17439;48.092;11.842;2023-03-01T12:47:26;35.72;;;16.27;;
30681;SDS011;17439;48.092;11.842;2023-03-01T12:49:37;34.35;;;16.52;;
30681;SDS011;17439;48.092;11.842;2023-03-01T12:52:21;27.88;;;13.65;;
30681;SDS011;17439;48.092;11.842;2023-03-01T12:54:59;35.50;;;15.23;;
30681;SDS011;17439;48.092;11.842;2023-03-01T12:57:31;36.38;;;15.45;;
30681;SDS011;17439;48.092;11.842;2023-03-01T13:05:47;32.63;;;16.52;;
30681;SDS011;17439;48.092;11.842;2023-03-01T13:11:25;36.17;;;15.77;;
30681;SDS011;17439;48.092;11.842;2023-03-01T13:13:51;36.30;;;16.23;;
30681;SDS011;17439;48.092;11.842;2023-03-01T13:19:06;42.30;;;18.55;;
30681;SDS011;17439;48.092;11.842;2023-03-01T13:21:38;35.03;;;15.63;;
30681;SDS011;17439;48.092;11.842;2023-03-01T13:24:23;32.03;;;15.20;;
30681;SDS011;17439;48.092;11.842;2023-03-01T13:27:36;35.53;;;17.77;;
30681;SDS011;17439;48.092;11.842;2023-03-01T13:29:44;38.35;;;16.20;;
30681;SDS011;17439;48.092;11.842;2023-03-01T13:32:24;38.80;;;17.75;;
30681;SDS011;17439;48.092;11.842;2023-03-01T13:38:36;36.47;;;16.58;;
30681;SDS011;17439;48.092;11.842;2023-03-01T13:41:03;43.75;;;19.17;;
30681;SDS011;17439;48.092;11.842;2023-03-01T13:43:52;37.90;;;17.43;;
30681;SDS011;17439;48.092;11.842;2023-03-01T13:46:21;36.33;;;16.38;;
30681;SDS011;17439;48.092;11.842;2023-03-01T13:48:50;36.67;;;16.60;;
30681;SDS011;17439;48.092;11.842;2023-03-01T13:51:21;36.33;;;17.00;;
30681;SDS011;17439;48.092;11.842;2023-03-01T13:53:51;38.38;;;16.55;;
30681;SDS011;17439;48.092;11.842;2023-03-01T13:56:29;40.85;;;17.77;;
30681;SDS011;17439;48.092;11.842;2023-03-01T13:59:12;44.42;;;19.20;;
30681;SDS011;17439;48.092;11.842;2023-03-01T14:04:22;37.08;;;16.08;;
30681;SDS011;17439;48.092;11.842;2023-03-01T14:06:50;36.65;;;15.48;;
30681;SDS011;17439;48.092;11.842;2023-03-01T14:09:21;32.03;;;14.68;;
30681;SDS011;17439;48.092;11.842;2023-03-01T14:14:42;33.85;;;16.10;;
30681;SDS011;17439;48.092;11.842;2023-03-01T14:17:19;35.65;;;17.58;;
30681;SDS011;17439;48.092;11.842;2023-03-01T14:20:20;32.45;;;14.80;;
30681;SDS011;17439;48.092;11.842;2023-03-01T14:22:49;31.55;;;15.57;;
30681;SDS011;17439;48.092;11.842;2023-03-01T14:25:21;33.10;;;15.50;;
30681;SDS011;17439;48.092;11.842;2023-03-01T14:27:54;27.10;;;14.15;;
30681;SDS011;17439;48.092;11.842;2023-03-01T14:30:27;35.53;;;15.35;;
30681;SDS011;17439;48.092;11.842;2023-03-01T14:33:00;32.83;;;14.98;;
30681;SDS011;17439;48.092;11.842;2023-03-01T14:35:33;33.58;;;15.52;;
30681;SDS011;17439;48.092;11.842;2023-03-01T14:38:02;29.23;;;15.15;;
30681;SDS011;17439;48.092;11.842;2023-03-01T14:40:34;25.42;;;12.57;;
30681;SDS011;17439;48.092;11.842;2023-03-01T14:43:07;36.28;;;16.45;;
30681;SDS011;17439;48.092;11.842;2023-03-01T14:45:38;37.90;;;16.17;;
30681;SDS011;17439;48.092;11.842;2023-03-01T14:48:05;29.77;;;13.32;;
30681;SDS011;17439;48.092;11.842;2023-03-01T14:50:34;32.88;;;16.15;;
30681;SDS011;17439;48.092;11.842;2023-03-01T14:53:06;27.48;;;14.18;;
30681;SDS011;17439;48.092;11.842;2023-03-01T14:55:41;32.33;;;15.63;;
30681;SDS011;17439;48.092;11.842;2023-03-01T14:58:13;32.72;;;14.80;;
30681;SDS011;17439;48.092;11.842;2023-03-01T15:00:49;35.72;;;16.33;;
30681;SDS011;17439;48.092;11.842;2023-03-01T15:03:38;33.83;;;16.52;;
30681;SDS011;17439;48.092;11.842;2023-03-01T15:06:11;33.60;;;15.25;;
30681;SDS011;17439;48.092;11.842;2023-03-01T15:08:44;30.67;;;14.48;;
30681;SDS011;17439;48.092;11.842;2023-03-01T15:13:39;28.98;;;13.38;;
30681;SDS011;17439;48.092;11.842;2023-03-01T15:16:19;29.50;;;13.73;;
30681;SDS011;17439;48.092;11.842;2023-03-01T15:18:51;27.65;;;12.52;;
30681;SDS011;17439;48.092;11.842;2023-03-01T15:21:33;35.05;;;15.73;;
30681;SDS011;17439;48.092;11.842;2023-03-01T15:26:40;29.27;;;12.93;;
30681;SDS011;17439;48.092;11.842;2023-03-01T15:29:16;26.15;;;12.38;;
30681;SDS011;17439;48.092;11.842;2023-03-01T15:31:53;28.70;;;12.18;;
30681;SDS011;17439;48.092;11.842;2023-03-01T15:34:23;29.77;;;13.50;;
30681;SDS011;17439;48.092;11.842;2023-03-01T15:36:57;36.47;;;16.20;;
30681;SDS011;17439;48.092;11.842;2023-03-01T15:39:27;28.63;;;14.07;;
30681;SDS011;17439;48.092;11.842;2023-03-01T15:41:58;35.88;;;15.75;;
30681;SDS011;17439;48.092;11.842;2023-03-01T15:44:26;30.50;;;14.57;;
30681;SDS011;17439;48.092;11.842;2023-03-01T15:47:21;27.13;;;11.70;;
30681;SDS011;17439;48.092;11.842;2023-03-01T15:49:51;30.05;;;13.25;;
30681;SDS011;17439;48.092;11.842;2023-03-01T15:52:25;29.48;;;14.50;;
30681;SDS011;17439;48.092;11.842;2023-03-01T15:55:03;25.48;;;11.90;;
30681;SDS011;17439;48.092;11.842;2023-03-01T16:00:11;40.15;;;13.32;;
30681;SDS011;17439;48.092;11.842;2023-03-01T16:02:40;31.52;;;13.85;;
30681;SDS011;17439;48.092;11.842;2023-03-01T16:07:45;30.77;;;13.93;;
30681;SDS011;17439;48.092;11.842;2023-03-01T16:10:12;26.20;;;12.15;;
30681;SDS011;17439;48.092;11.842;2023-03-01T16:12:39;27.55;;;12.55;;
30681;SDS011;17439;48.092;11.842;2023-03-01T16:15:11;28.23;;;12.20;;
30681;SDS011;17439;48.092;11.842;2023-03-01T16:17:42;30.67;;;12.55;;
30681;SDS011;17439;48.092;11.842;2023-03-01T16:20:10;30.38;;;13.23;;
30681;SDS011;17439;48.092;11.842;2023-03-01T16:22:48;28.08;;;12.45;;
30681;SDS011;17439;48.092;11.842;2023-03-01T16:25:15;28.85;;;11.93;;